createdAt,value
2017-10-15T00:00:15.425Z,86.34
2017-10-15T00:01:15.442Z,87.10
2017-10-15T00:02:15.463Z,87.58
2017-10-15T00:03:15.484Z,87.58
2017-10-15T00:04:15.498Z,87.29
2017-10-15T00:05:15.516Z,87.68
2017-10-15T00:06:15.548Z,87.10
2017-10-15T00:07:15.560Z,86.72
2017-10-15T00:08:15.586Z,86.63
2017-10-15T00:09:15.595Z,86.34
2017-10-15T00:10:15.616Z,86.82
2017-10-15T00:11:15.633Z,86.63
2017-10-15T00:12:15.672Z,86.82
2017-10-15T00:13:15.676Z,86.82
2017-10-15T00:14:15.693Z,86.63
2017-10-15T00:15:15.713Z,86.82
2017-10-15T00:16:15.736Z,86.63
2017-10-15T00:17:15.754Z,86.82
2017-10-15T00:18:15.774Z,87.48
2017-10-15T00:19:15.790Z,87.10
2017-10-15T00:20:15.810Z,87.01
2017-10-15T00:21:15.830Z,86.63
2017-10-15T00:22:15.848Z,86.63
2017-10-15T00:23:15.870Z,86.63
2017-10-15T00:24:15.886Z,86.53
2017-10-15T00:25:15.908Z,86.05
2017-10-15T00:26:15.927Z,86.05
2017-10-15T00:27:15.946Z,85.77
2017-10-15T00:28:15.968Z,85.67
2017-10-15T00:29:16.013Z,85.77
2017-10-15T00:30:16.013Z,85.86
2017-10-15T00:31:16.029Z,85.86
2017-10-15T00:32:16.043Z,86.82
2017-10-15T00:33:16.062Z,86.24
2017-10-15T00:34:16.084Z,86.63
2017-10-15T00:35:16.110Z,86.82
2017-10-15T00:36:16.126Z,86.72
2017-10-15T00:37:16.265Z,86.24
2017-10-15T00:38:16.164Z,86.63
2017-10-15T00:39:16.178Z,87.35
2017-10-15T00:40:16.197Z,86.91
2017-10-15T00:41:16.216Z,87.20
2017-10-15T00:42:16.240Z,87.06
2017-10-15T00:43:16.256Z,87.20
2017-10-15T00:44:16.277Z,87.06
2017-10-15T00:45:16.297Z,87.44
2017-10-15T00:46:16.315Z,86.68
2017-10-15T00:47:16.334Z,86.96
2017-10-15T00:48:16.353Z,87.06
2017-10-15T00:49:16.490Z,87.15
2017-10-15T00:50:16.392Z,86.77
2017-10-15T00:51:16.413Z,86.91
2017-10-15T00:52:16.431Z,86.82
2017-10-15T00:53:16.450Z,86.96
2017-10-15T00:54:16.469Z,86.91
2017-10-15T00:55:16.489Z,87.15
2017-10-15T00:56:16.506Z,86.63
2017-10-15T00:57:16.529Z,86.96
2017-10-15T00:58:16.551Z,87.73
2017-10-15T00:59:16.571Z,87.15
2017-10-15T01:00:16.737Z,86.77
2017-10-15T01:01:16.614Z,87.25
2017-10-15T01:02:16.628Z,86.96
2017-10-15T01:03:16.652Z,86.96
2017-10-15T01:04:16.662Z,86.96
2017-10-15T01:05:16.683Z,87.06
2017-10-15T01:06:16.704Z,86.58
2017-10-15T01:07:16.722Z,87.01
2017-10-15T01:08:16.745Z,86.43
2017-10-15T01:09:16.765Z,86.49
2017-10-15T01:10:16.780Z,86.34
2017-10-15T01:11:16.800Z,86.53
2017-10-15T01:12:16.815Z,86.10
2017-10-15T01:13:16.837Z,86.43
2017-10-15T01:14:16.857Z,86.87
2017-10-15T01:15:16.876Z,86.20
2017-10-15T01:16:16.895Z,86.30
2017-10-15T01:17:16.917Z,85.82
2017-10-15T01:18:16.932Z,85.96
2017-10-15T01:19:16.951Z,85.86
2017-10-15T01:20:16.971Z,85.96
2017-10-15T01:21:17.013Z,86.15
2017-10-15T01:22:17.011Z,85.91
2017-10-15T01:23:17.030Z,86.30
2017-10-15T01:24:17.045Z,86.96
2017-10-15T01:25:17.071Z,86.96
2017-10-15T01:26:17.087Z,87.63
2017-10-15T01:27:17.107Z,86.96
2017-10-15T01:28:17.125Z,87.06
2017-10-15T01:29:17.145Z,87.44
2017-10-15T01:30:17.166Z,87.54
2017-10-15T01:31:17.185Z,87.73
2017-10-15T01:32:17.203Z,87.25
2017-10-15T01:33:17.237Z,87.15
2017-10-15T01:34:17.247Z,86.68
2017-10-15T01:35:17.262Z,86.87
2017-10-15T01:36:17.279Z,86.82
2017-10-15T01:37:17.299Z,86.49
2017-10-15T01:38:17.322Z,87.25
2017-10-15T01:39:17.339Z,87.06
2017-10-15T01:40:17.359Z,87.35
2017-10-15T01:41:17.378Z,87.25
2017-10-15T01:42:17.403Z,86.77
2017-10-15T01:43:17.415Z,87.35
2017-10-15T01:44:17.434Z,87.73
2017-10-15T01:45:17.460Z,87.44
2017-10-15T01:46:17.477Z,87.63
2017-10-15T01:47:17.492Z,87.54
2017-10-15T01:48:17.511Z,87.63
2017-10-15T01:49:17.531Z,87.25
2017-10-15T01:50:17.549Z,87.54
2017-10-15T01:51:17.573Z,87.44
2017-10-15T01:52:17.587Z,87.73
2017-10-15T01:53:17.608Z,87.25
2017-10-15T01:54:17.626Z,87.25
2017-10-15T01:55:17.648Z,87.35
2017-10-15T01:56:17.666Z,87.44
2017-10-15T01:57:17.690Z,87.35
2017-10-15T01:58:17.702Z,87.25
2017-10-15T01:59:17.722Z,87.82
2017-10-15T02:00:17.746Z,87.54
2017-10-15T02:01:17.764Z,87.63
2017-10-15T02:02:17.779Z,88.01
2017-10-15T02:03:17.804Z,87.92
2017-10-15T02:04:17.817Z,88.11
2017-10-15T02:05:17.837Z,87.44
2017-10-15T02:06:17.857Z,87.44
2017-10-15T02:07:17.876Z,87.44
2017-10-15T02:08:17.904Z,87.25
2017-10-15T02:09:17.918Z,87.44
2017-10-15T02:10:17.939Z,87.63
2017-10-15T02:11:17.952Z,87.35
2017-10-15T02:12:17.972Z,87.63
2017-10-15T02:13:17.990Z,86.96
2017-10-15T02:14:18.009Z,86.96
2017-10-15T02:15:18.032Z,86.77
2017-10-15T02:16:18.049Z,87.06
2017-10-15T02:17:18.092Z,87.06
2017-10-15T02:18:18.089Z,87.15
2017-10-15T02:19:18.110Z,86.68
2017-10-15T02:20:18.129Z,86.96
2017-10-15T02:21:18.145Z,87.54
2017-10-15T02:22:18.168Z,86.87
2017-10-15T02:23:18.182Z,86.87
2017-10-15T02:24:18.204Z,86.87
2017-10-15T02:25:18.220Z,86.77
2017-10-15T02:26:18.242Z,86.77
2017-10-15T02:27:18.259Z,87.15
2017-10-15T02:28:18.282Z,86.96
2017-10-15T02:29:18.297Z,86.96
2017-10-15T02:30:18.332Z,86.87
2017-10-15T02:31:18.336Z,86.73
2017-10-15T02:32:18.356Z,87.87
2017-10-15T02:33:18.373Z,87.59
2017-10-15T02:34:18.392Z,87.30
2017-10-15T02:35:18.418Z,86.63
2017-10-15T02:36:18.434Z,86.82
2017-10-15T02:37:18.451Z,87.11
2017-10-15T02:38:18.470Z,86.87
2017-10-15T02:39:18.494Z,86.77
2017-10-15T02:40:18.508Z,86.58
2017-10-15T02:41:18.529Z,86.49
2017-10-15T02:42:18.546Z,86.49
2017-10-15T02:43:18.568Z,86.10
2017-10-15T02:44:18.588Z,85.53
2017-10-15T02:45:18.604Z,85.91
2017-10-15T02:46:18.623Z,85.72
2017-10-15T02:47:18.650Z,86.20
2017-10-15T02:48:18.661Z,86.20
2017-10-15T02:49:18.681Z,85.63
2017-10-15T02:50:18.700Z,85.72
2017-10-15T02:51:18.717Z,85.63
2017-10-15T02:52:18.736Z,85.72
2017-10-15T02:53:18.765Z,85.91
2017-10-15T02:54:18.774Z,86.25
2017-10-15T02:55:18.795Z,86.30
2017-10-15T02:56:18.813Z,86.54
2017-10-15T02:57:18.840Z,86.39
2017-10-15T02:58:18.911Z,86.68
2017-10-15T02:59:18.869Z,86.20
2017-10-15T03:00:18.891Z,86.30
2017-10-15T03:01:18.911Z,86.20
2017-10-15T03:02:18.930Z,86.49
2017-10-15T03:03:18.948Z,86.30
2017-10-15T03:04:18.965Z,86.77
2017-10-15T03:05:18.988Z,87.11
2017-10-15T03:06:19.004Z,86.73
2017-10-15T03:07:19.031Z,87.21
2017-10-15T03:08:19.046Z,87.78
2017-10-15T03:09:19.062Z,88.26
2017-10-15T03:10:19.080Z,88.54
2017-10-15T03:11:19.101Z,88.45
2017-10-15T03:12:19.119Z,88.07
2017-10-15T03:13:19.138Z,88.54
2017-10-15T03:14:19.157Z,88.16
2017-10-15T03:15:19.182Z,87.78
2017-10-15T03:16:19.205Z,87.40
2017-10-15T03:17:19.215Z,87.40
2017-10-15T03:18:19.235Z,87.59
2017-10-15T03:19:19.251Z,88.07
2017-10-15T03:20:19.271Z,87.68
2017-10-15T03:21:19.288Z,87.78
2017-10-15T03:22:19.308Z,87.11
2017-10-15T03:23:19.339Z,86.73
2017-10-15T03:24:19.344Z,86.73
2017-10-15T03:25:19.393Z,86.63
2017-10-15T03:26:19.382Z,86.73
2017-10-15T03:27:19.469Z,86.92
2017-10-15T03:28:19.421Z,86.54
2017-10-15T03:29:19.450Z,86.54
2017-10-15T03:30:19.463Z,87.40
2017-10-15T03:31:19.489Z,87.78
2017-10-15T03:32:19.497Z,87.59
2017-10-15T03:33:19.515Z,87.49
2017-10-15T03:34:19.545Z,87.30
2017-10-15T03:35:19.555Z,86.63
2017-10-15T03:36:19.573Z,86.73
2017-10-15T03:37:19.592Z,86.54
2017-10-15T03:38:19.621Z,86.73
2017-10-15T03:39:19.711Z,86.63
2017-10-15T03:40:19.648Z,86.92
2017-10-15T03:41:19.672Z,87.68
2017-10-15T03:42:19.689Z,87.30
2017-10-15T03:43:19.707Z,87.35
2017-10-15T03:44:19.724Z,87.83
2017-10-15T03:45:19.803Z,87.83
2017-10-15T03:46:19.764Z,87.83
2017-10-15T03:47:19.782Z,87.64
2017-10-15T03:48:19.798Z,88.02
2017-10-15T03:49:19.818Z,87.64
2017-10-15T03:50:19.838Z,87.35
2017-10-15T03:51:19.860Z,86.54
2017-10-15T03:52:19.877Z,86.82
2017-10-15T03:53:19.894Z,86.63
2017-10-15T03:54:19.914Z,87.68
2017-10-15T03:55:19.937Z,87.97
2017-10-15T03:56:19.965Z,88.64
2017-10-15T03:57:19.971Z,88.35
2017-10-15T03:58:19.989Z,88.64
2017-10-15T03:59:20.009Z,88.54
2017-10-15T04:00:20.026Z,88.07
2017-10-15T04:01:20.046Z,87.40
2017-10-15T04:02:20.067Z,87.49
2017-10-15T04:03:20.085Z,87.40
2017-10-15T04:04:20.104Z,87.59
2017-10-15T04:05:20.122Z,87.30
2017-10-15T04:06:20.142Z,87.59
2017-10-15T04:07:20.169Z,86.63
2017-10-15T04:08:20.181Z,87.02
2017-10-15T04:09:20.199Z,86.54
2017-10-15T04:10:20.219Z,86.73
2017-10-15T04:11:20.237Z,86.63
2017-10-15T04:12:20.255Z,87.21
2017-10-15T04:13:20.275Z,86.82
2017-10-15T04:14:20.295Z,86.54
2017-10-15T04:15:20.311Z,87.11
2017-10-15T04:16:20.330Z,86.82
2017-10-15T04:17:20.352Z,87.78
2017-10-15T04:18:20.369Z,87.59
2017-10-15T04:19:20.388Z,87.87
2017-10-15T04:20:20.409Z,87.97
2017-10-15T04:21:20.429Z,87.59
2017-10-15T04:22:20.448Z,87.87
2017-10-15T04:23:20.465Z,87.87
2017-10-15T04:24:20.481Z,88.40
2017-10-15T04:25:20.500Z,88.35
2017-10-15T04:26:20.520Z,88.87
2017-10-15T04:27:20.541Z,89.59
2017-10-15T04:28:20.557Z,89.06
2017-10-15T04:29:20.578Z,89.45
2017-10-15T04:30:20.601Z,89.92
2017-10-15T04:31:20.618Z,89.16
2017-10-15T04:32:20.635Z,89.45
2017-10-15T04:33:20.654Z,89.35
2017-10-15T04:34:20.686Z,89.45
2017-10-15T04:35:20.691Z,89.35
2017-10-15T04:36:20.712Z,89.54
2017-10-15T04:37:20.731Z,88.68
2017-10-15T04:38:20.748Z,89.45
2017-10-15T04:39:20.769Z,89.25
2017-10-15T04:40:20.787Z,89.06
2017-10-15T04:41:20.808Z,89.83
2017-10-15T04:42:20.830Z,89.45
2017-10-15T04:43:20.846Z,89.45
2017-10-15T04:44:20.861Z,89.64
2017-10-15T04:45:20.885Z,89.92
2017-10-15T04:46:20.905Z,90.06
2017-10-15T04:47:20.921Z,90.11
2017-10-15T04:48:20.945Z,89.92
2017-10-15T04:49:20.961Z,89.92
2017-10-15T04:50:20.979Z,90.69
2017-10-15T04:51:20.997Z,90.40
2017-10-15T04:52:21.015Z,90.40
2017-10-15T04:53:21.036Z,89.64
2017-10-15T04:54:21.056Z,90.06
2017-10-15T04:55:21.075Z,89.68
2017-10-15T04:56:21.092Z,89.64
2017-10-15T04:57:21.112Z,90.25
2017-10-15T04:58:21.134Z,90.45
2017-10-15T04:59:21.150Z,89.92
2017-10-15T05:00:21.167Z,89.64
2017-10-15T05:01:21.191Z,90.69
2017-10-15T05:02:21.210Z,90.40
2017-10-15T05:03:21.230Z,90.02
2017-10-15T05:04:21.247Z,89.83
2017-10-15T05:05:21.269Z,90.11
2017-10-15T05:06:21.287Z,89.73
2017-10-15T05:07:21.308Z,89.73
2017-10-15T05:08:21.324Z,89.83
2017-10-15T05:09:21.344Z,89.25
2017-10-15T05:10:21.374Z,89.16
2017-10-15T05:11:21.383Z,89.11
2017-10-15T05:12:21.401Z,89.54
2017-10-15T05:13:21.422Z,89.25
2017-10-15T05:14:21.441Z,89.06
2017-10-15T05:15:21.459Z,89.54
2017-10-15T05:16:21.480Z,89.25
2017-10-15T05:17:21.504Z,88.87
2017-10-15T05:18:21.520Z,88.78
2017-10-15T05:19:21.537Z,89.92
2017-10-15T05:20:21.555Z,90.02
2017-10-15T05:21:21.577Z,90.02
2017-10-15T05:22:21.597Z,89.64
2017-10-15T05:23:21.617Z,89.45
2017-10-15T05:24:21.635Z,89.54
2017-10-15T05:25:21.653Z,89.16
2017-10-15T05:26:21.672Z,89.45
2017-10-15T05:27:21.695Z,89.35
2017-10-15T05:28:21.715Z,89.88
2017-10-15T05:29:21.730Z,90.55
2017-10-15T05:30:21.753Z,90.36
2017-10-15T05:31:21.769Z,90.45
2017-10-15T05:32:21.786Z,90.45
2017-10-15T05:33:21.804Z,90.64
2017-10-15T05:34:21.824Z,90.17
2017-10-15T05:35:21.844Z,90.55
2017-10-15T05:36:21.862Z,89.69
2017-10-15T05:37:21.881Z,89.69
2017-10-15T05:38:21.910Z,89.88
2017-10-15T05:39:21.921Z,89.40
2017-10-15T05:40:21.945Z,89.12
2017-10-15T05:41:21.960Z,89.31
2017-10-15T05:42:21.979Z,89.21
2017-10-15T05:43:21.997Z,89.31
2017-10-15T05:44:22.017Z,88.73
2017-10-15T05:45:22.037Z,88.64
2017-10-15T05:46:22.060Z,88.73
2017-10-15T05:47:22.073Z,89.02
2017-10-15T05:48:22.093Z,89.40
2017-10-15T05:49:22.111Z,89.31
2017-10-15T05:50:22.139Z,89.45
2017-10-15T05:51:22.149Z,89.50
2017-10-15T05:52:22.224Z,89.74
2017-10-15T05:53:22.186Z,89.74
2017-10-15T05:54:22.204Z,89.64
2017-10-15T05:55:22.225Z,89.64
2017-10-15T05:56:22.246Z,89.74
2017-10-15T05:57:22.264Z,90.31
2017-10-15T05:58:22.282Z,90.36
2017-10-15T05:59:22.302Z,89.59
2017-10-15T06:00:22.319Z,89.64
2017-10-15T06:01:22.341Z,89.64
2017-10-15T06:02:22.359Z,89.78
2017-10-15T06:03:22.379Z,89.83
2017-10-15T06:04:22.397Z,89.74
2017-10-15T06:05:22.419Z,90.31
2017-10-15T06:06:22.438Z,89.74
2017-10-15T06:07:22.452Z,89.83
2017-10-15T06:08:22.471Z,89.36
2017-10-15T06:09:22.493Z,88.78
2017-10-15T06:10:22.510Z,89.26
2017-10-15T06:11:22.543Z,89.64
2017-10-15T06:12:22.550Z,89.64
2017-10-15T06:13:22.571Z,89.36
2017-10-15T06:14:22.586Z,89.45
2017-10-15T06:15:22.605Z,89.83
2017-10-15T06:16:22.623Z,89.93
2017-10-15T06:17:22.642Z,89.36
2017-10-15T06:18:22.668Z,89.64
2017-10-15T06:19:22.678Z,89.64
2017-10-15T06:20:22.724Z,90.03
2017-10-15T06:21:22.722Z,89.54
2017-10-15T06:22:22.741Z,88.26
2017-10-15T06:23:22.762Z,88.45
2017-10-15T06:24:22.779Z,87.59
2017-10-15T06:25:22.794Z,87.97
2017-10-15T06:26:22.815Z,88.16
2017-10-15T06:27:22.832Z,88.64
2017-10-15T06:28:22.856Z,88.35
2017-10-15T06:29:22.877Z,88.07
2017-10-15T06:30:22.889Z,87.59
2017-10-15T06:31:22.913Z,87.25
2017-10-15T06:32:22.929Z,88.07
2017-10-15T06:33:22.954Z,88.40
2017-10-15T06:34:22.969Z,87.92
2017-10-15T06:35:22.986Z,87.35
2017-10-15T06:36:23.027Z,86.96
2017-10-15T06:37:23.041Z,86.87
2017-10-15T06:38:23.046Z,87.01
2017-10-15T06:39:23.065Z,85.96
2017-10-15T06:40:23.081Z,86.05
2017-10-15T06:41:23.130Z,85.77
2017-10-15T06:42:23.133Z,85.58
2017-10-15T06:43:23.296Z,85.58
2017-10-15T06:44:23.159Z,85.10
2017-10-15T06:45:23.188Z,84.66
2017-10-15T06:46:23.204Z,84.09
2017-10-15T06:47:23.221Z,83.13
2017-10-15T06:48:23.246Z,83.13
2017-10-15T06:49:23.264Z,82.37
2017-10-15T06:50:23.363Z,83.13
2017-10-15T06:51:23.304Z,83.70
2017-10-15T06:52:23.325Z,82.98
2017-10-15T06:53:23.348Z,81.40
2017-10-15T06:54:23.375Z,80.92
2017-10-15T06:55:23.383Z,80.58
2017-10-15T06:56:23.412Z,78.42
2017-10-15T06:57:23.424Z,77.97
2017-10-15T06:58:23.450Z,76.73
2017-10-15T06:59:23.475Z,76.00
2017-10-15T07:00:23.487Z,75.27
2017-10-15T07:01:23.526Z,74.60
2017-10-15T07:02:23.535Z,72.33
2017-10-15T07:03:23.555Z,70.70
2017-10-15T07:04:23.578Z,71.93
2017-10-15T07:05:23.597Z,70.14
2017-10-15T07:06:23.629Z,68.54
2017-10-15T07:07:23.645Z,67.54
2017-10-15T07:08:23.660Z,67.48
2017-10-15T07:09:23.684Z,65.69
2017-10-15T07:10:23.710Z,64.47
2017-10-15T07:11:23.737Z,63.22
2017-10-15T07:12:23.799Z,63.70
2017-10-15T07:13:23.786Z,62.29
2017-10-15T07:14:23.808Z,62.67
2017-10-15T07:15:23.824Z,62.32
2017-10-15T07:16:23.847Z,61.16
2017-10-15T07:17:23.877Z,60.55
2017-10-15T07:18:23.899Z,59.48
2017-10-15T07:19:23.925Z,58.94
2017-10-15T07:20:23.945Z,59.03
2017-10-15T07:21:23.972Z,57.81
2017-10-15T07:22:23.998Z,56.74
2017-10-15T07:23:24.021Z,56.48
2017-10-15T07:24:24.046Z,56.03
2017-10-15T07:25:24.071Z,55.26
2017-10-15T07:26:24.096Z,54.22
2017-10-15T07:27:24.123Z,53.57
2017-10-15T07:28:24.153Z,52.67
2017-10-15T07:29:24.181Z,53.16
2017-10-15T07:30:24.204Z,53.74
2017-10-15T07:31:24.223Z,54.10
2017-10-15T07:32:24.250Z,54.61
2017-10-15T07:33:24.277Z,53.31
2017-10-15T07:34:24.301Z,52.24
2017-10-15T07:35:24.329Z,52.53
2017-10-15T07:36:24.351Z,52.17
2017-10-15T07:37:24.379Z,50.74
2017-10-15T07:38:24.402Z,50.35
2017-10-15T07:39:24.427Z,50.38
2017-10-15T07:40:24.460Z,49.73
2017-10-15T07:41:24.482Z,48.78
2017-10-15T07:42:24.506Z,48.80
2017-10-15T07:43:24.530Z,46.94
2017-10-15T07:44:24.555Z,49.80
2017-10-15T07:45:24.585Z,49.51
2017-10-15T07:46:24.609Z,49.80
2017-10-15T07:47:24.639Z,51.13
2017-10-15T07:48:24.661Z,52.17
2017-10-15T07:49:24.688Z,52.08
2017-10-15T07:50:24.739Z,54.15
2017-10-15T07:51:24.751Z,55.29
2017-10-15T07:52:24.775Z,56.51
2017-10-15T07:53:24.796Z,55.07
2017-10-15T07:54:24.831Z,52.22
2017-10-15T07:55:24.852Z,51.47
2017-10-15T07:56:24.872Z,51.04
2017-10-15T07:57:24.901Z,52.78
2017-10-15T07:58:24.930Z,54.37
2017-10-15T07:59:24.960Z,54.13
2017-10-15T08:00:24.986Z,52.49
2017-10-15T08:01:25.008Z,53.65
2017-10-15T08:02:25.033Z,52.25
2017-10-15T08:03:25.076Z,50.16
2017-10-15T08:04:25.102Z,48.44
2017-10-15T08:05:25.123Z,48.35
2017-10-15T08:06:25.152Z,48.35
2017-10-15T08:07:25.194Z,48.27
2017-10-15T08:08:25.199Z,48.35
2017-10-15T08:09:25.222Z,50.02
2017-10-15T08:10:25.253Z,50.65
2017-10-15T08:11:25.283Z,49.02
2017-10-15T08:12:25.304Z,48.35
2017-10-15T08:13:25.324Z,48.97
2017-10-15T08:14:25.353Z,49.15
2017-10-15T08:15:25.380Z,51.68
2017-10-15T08:16:25.402Z,55.02
2017-10-15T08:17:25.437Z,56.96
2017-10-15T08:18:25.450Z,57.67
2017-10-15T08:19:25.482Z,56.73
2017-10-15T08:20:25.511Z,56.80
2017-10-15T08:21:25.525Z,56.71
2017-10-15T08:22:25.555Z,57.74
2017-10-15T08:23:25.576Z,59.55
2017-10-15T08:24:25.602Z,59.64
2017-10-15T08:25:25.628Z,62.54
2017-10-15T08:26:25.650Z,64.37
2017-10-15T08:27:25.674Z,63.63
2017-10-15T08:28:25.699Z,64.18
2017-10-15T08:29:26.612Z,64.43
2017-10-15T08:30:25.747Z,65.98
2017-10-15T08:31:25.772Z,65.88
2017-10-15T08:32:25.792Z,66.46
2017-10-15T08:33:25.821Z,67.97
2017-10-15T08:34:25.843Z,68.90
2017-10-15T08:35:25.870Z,70.98
2017-10-15T08:36:25.887Z,69.67
2017-10-15T08:37:25.910Z,69.12
2017-10-15T08:38:25.938Z,68.84
2017-10-15T08:39:26.782Z,68.44
2017-10-15T08:40:25.981Z,68.64
2017-10-15T08:41:26.005Z,69.76
2017-10-15T08:42:26.027Z,69.41
2017-10-15T08:43:26.064Z,69.57
2017-10-15T08:44:26.086Z,71.08
2017-10-15T08:45:26.097Z,71.01
2017-10-15T08:46:26.134Z,70.62
2017-10-15T08:47:26.141Z,70.09
2017-10-15T08:48:26.413Z,69.12
2017-10-15T08:49:26.194Z,68.64
2017-10-15T08:50:26.209Z,68.44
2017-10-15T08:51:26.244Z,68.84
2017-10-15T08:52:26.260Z,69.44
2017-10-15T08:53:26.280Z,70.68
2017-10-15T08:54:26.302Z,71.75
2017-10-15T08:55:26.390Z,70.62
2017-10-15T08:56:26.354Z,69.67
2017-10-15T08:57:27.024Z,68.74
2017-10-15T08:58:26.395Z,69.12
2017-10-15T08:59:26.419Z,69.12
2017-10-15T09:00:26.451Z,69.57
2017-10-15T09:01:26.464Z,70.82
2017-10-15T09:02:26.492Z,71.65
2017-10-15T09:03:26.599Z,69.95
2017-10-15T09:04:26.531Z,70.15
2017-10-15T09:05:26.552Z,69.38
2017-10-15T09:06:26.597Z,69.57
2017-10-15T09:07:26.597Z,69.57
2017-10-15T09:08:26.630Z,69.02
2017-10-15T09:09:26.645Z,69.09
2017-10-15T09:10:26.664Z,69.85
2017-10-15T09:11:26.701Z,71.36
2017-10-15T09:12:26.712Z,71.01
2017-10-15T09:13:26.732Z,70.92
2017-10-15T09:14:26.755Z,70.62
2017-10-15T09:15:27.599Z,70.21
2017-10-15T09:16:26.802Z,71.46
2017-10-15T09:17:26.824Z,70.62
2017-10-15T09:18:26.848Z,70.98
2017-10-15T09:19:27.088Z,70.01
2017-10-15T09:20:26.894Z,70.62
2017-10-15T09:21:26.917Z,69.89
2017-10-15T09:22:26.935Z,69.02
2017-10-15T09:23:26.961Z,69.22
2017-10-15T09:24:26.980Z,68.84
2017-10-15T09:25:27.006Z,68.35
2017-10-15T09:26:27.596Z,68.38
2017-10-15T09:27:27.050Z,67.90
2017-10-15T09:28:27.132Z,67.93
2017-10-15T09:29:27.194Z,69.67
2017-10-15T09:30:27.135Z,70.05
2017-10-15T09:31:27.159Z,70.68
2017-10-15T09:32:27.165Z,69.85
2017-10-15T09:33:27.182Z,69.76
2017-10-15T09:34:27.213Z,70.72
2017-10-15T09:35:27.238Z,69.79
2017-10-15T09:36:27.254Z,71.01
2017-10-15T09:37:27.275Z,70.34
2017-10-15T09:38:27.296Z,70.92
2017-10-15T09:39:27.336Z,69.70
2017-10-15T09:40:27.341Z,70.72
2017-10-15T09:41:27.490Z,70.92
2017-10-15T09:42:27.389Z,71.11
2017-10-15T09:43:27.424Z,70.78
2017-10-15T09:44:27.477Z,71.55
2017-10-15T09:45:27.455Z,70.24
2017-10-15T09:46:27.483Z,70.92
2017-10-15T09:47:27.509Z,70.92
2017-10-15T09:48:27.522Z,71.65
2017-10-15T09:49:27.548Z,71.55
2017-10-15T09:50:27.568Z,72.45
2017-10-15T09:51:27.592Z,72.90
2017-10-15T09:52:27.613Z,72.52
2017-10-15T09:53:29.332Z,71.75
2017-10-15T09:54:27.669Z,72.32
2017-10-15T09:55:27.686Z,72.07
2017-10-15T09:56:27.705Z,71.97
2017-10-15T09:57:27.726Z,71.69
2017-10-15T09:58:27.759Z,71.59
2017-10-15T09:59:27.777Z,71.84
2017-10-15T10:00:27.797Z,71.94
2017-10-15T10:01:27.823Z,71.59
2017-10-15T10:02:27.841Z,70.76
2017-10-15T10:03:27.868Z,69.93
2017-10-15T10:04:27.885Z,70.41
2017-10-15T10:05:28.041Z,70.95
2017-10-15T10:06:27.933Z,70.95
2017-10-15T10:07:27.971Z,71.04
2017-10-15T10:08:27.983Z,71.59
2017-10-15T10:09:28.033Z,71.43
2017-10-15T10:10:28.021Z,70.70
2017-10-15T10:11:28.046Z,69.35
2017-10-15T10:12:28.072Z,68.61
2017-10-15T10:13:28.097Z,68.52
2017-10-15T10:14:28.113Z,69.54
2017-10-15T10:15:28.135Z,68.38
2017-10-15T10:16:28.156Z,68.80
2017-10-15T10:17:28.181Z,69.09
2017-10-15T10:18:28.203Z,68.61
2017-10-15T10:19:28.229Z,68.32
2017-10-15T10:20:28.249Z,67.55
2017-10-15T10:21:28.272Z,69.60
2017-10-15T10:22:28.296Z,69.02
2017-10-15T10:23:28.324Z,69.99
2017-10-15T10:24:28.346Z,70.28
2017-10-15T10:25:28.364Z,69.93
2017-10-15T10:26:28.389Z,71.04
2017-10-15T10:27:28.414Z,71.88
2017-10-15T10:28:28.436Z,71.69
2017-10-15T10:29:28.458Z,71.40
2017-10-15T10:30:28.482Z,72.11
2017-10-15T10:31:28.505Z,72.49
2017-10-15T10:32:28.526Z,71.62
2017-10-15T10:33:28.548Z,71.69
2017-10-15T10:34:28.573Z,72.11
2017-10-15T10:35:28.596Z,73.13
2017-10-15T10:36:28.634Z,72.55
2017-10-15T10:37:28.644Z,72.11
2017-10-15T10:38:28.674Z,71.81
2017-10-15T10:39:28.687Z,71.53
2017-10-15T10:40:28.707Z,71.59
2017-10-15T10:41:28.733Z,72.17
2017-10-15T10:42:28.779Z,71.49
2017-10-15T10:43:28.783Z,70.15
2017-10-15T10:44:28.800Z,71.24
2017-10-15T10:45:28.835Z,71.91
2017-10-15T10:46:28.847Z,71.78
2017-10-15T10:47:28.873Z,71.40
2017-10-15T10:48:28.908Z,71.43
2017-10-15T10:49:28.913Z,71.53
2017-10-15T10:50:28.941Z,72.49
2017-10-15T10:51:28.960Z,72.01
2017-10-15T10:52:29.006Z,72.07
2017-10-15T10:53:29.006Z,72.17
2017-10-15T10:54:29.032Z,71.81
2017-10-15T10:55:29.052Z,70.95
2017-10-15T10:56:29.077Z,70.89
2017-10-15T10:57:29.099Z,71.53
2017-10-15T10:58:29.119Z,71.43
2017-10-15T10:59:29.145Z,71.81
2017-10-15T11:00:29.171Z,71.97
2017-10-15T11:01:29.190Z,72.45
2017-10-15T11:02:29.214Z,72.11
2017-10-15T11:03:29.233Z,71.81
2017-10-15T11:04:29.257Z,70.70
2017-10-15T11:05:29.290Z,69.57
2017-10-15T11:06:29.301Z,70.06
2017-10-15T11:07:29.329Z,68.90
2017-10-15T11:08:29.350Z,68.71
2017-10-15T11:09:29.373Z,69.67
2017-10-15T11:10:29.405Z,69.96
2017-10-15T11:11:29.458Z,69.67
2017-10-15T11:12:29.443Z,68.65
2017-10-15T11:13:29.482Z,69.03
2017-10-15T11:14:29.486Z,68.99
2017-10-15T11:15:29.513Z,69.67
2017-10-15T11:16:29.536Z,70.06
2017-10-15T11:17:29.564Z,71.08
2017-10-15T11:18:29.580Z,70.73
2017-10-15T11:19:29.621Z,70.09
2017-10-15T11:20:29.630Z,70.00
2017-10-15T11:21:29.655Z,69.80
2017-10-15T11:22:29.675Z,69.96
2017-10-15T11:23:29.703Z,70.64
2017-10-15T11:24:29.729Z,71.02
2017-10-15T11:25:29.743Z,69.71
2017-10-15T11:26:29.791Z,69.71
2017-10-15T11:27:29.798Z,68.65
2017-10-15T11:28:29.812Z,68.74
2017-10-15T11:29:29.924Z,68.35
2017-10-15T11:30:29.859Z,69.13
2017-10-15T11:31:29.883Z,70.00
2017-10-15T11:32:29.906Z,69.90
2017-10-15T11:33:29.931Z,70.44
2017-10-15T11:34:29.962Z,70.92
2017-10-15T11:35:29.975Z,71.22
2017-10-15T11:36:30.015Z,72.08
2017-10-15T11:37:30.031Z,71.70
2017-10-15T11:38:30.050Z,71.02
2017-10-15T11:39:30.066Z,71.22
2017-10-15T11:40:30.102Z,70.92
2017-10-15T11:41:30.123Z,71.12
2017-10-15T11:42:30.138Z,70.83
2017-10-15T11:43:30.166Z,71.98
2017-10-15T11:44:30.210Z,71.02
2017-10-15T11:45:30.228Z,72.08
2017-10-15T11:46:30.245Z,72.47
2017-10-15T11:47:30.294Z,71.15
2017-10-15T11:48:30.285Z,70.64
2017-10-15T11:49:30.318Z,71.34
2017-10-15T11:50:30.339Z,69.55
2017-10-15T11:51:30.349Z,69.32
2017-10-15T11:52:30.378Z,69.71
2017-10-15T11:53:30.392Z,69.61
2017-10-15T11:54:30.468Z,69.55
2017-10-15T11:55:30.443Z,68.87
2017-10-15T11:56:30.475Z,68.49
2017-10-15T11:57:30.495Z,68.19
2017-10-15T11:58:30.514Z,68.77
2017-10-15T11:59:30.536Z,68.10
2017-10-15T12:00:30.563Z,68.19
2017-10-15T12:01:30.583Z,68.29
2017-10-15T12:02:30.619Z,68.39
2017-10-15T12:03:30.641Z,68.13
2017-10-15T12:04:30.652Z,68.43
2017-10-15T12:05:30.674Z,67.65
2017-10-15T12:06:30.701Z,68.77
2017-10-15T12:07:30.722Z,68.49
2017-10-15T12:08:30.746Z,68.59
2017-10-15T12:09:30.770Z,69.07
2017-10-15T12:10:30.796Z,69.45
2017-10-15T12:11:30.826Z,69.07
2017-10-15T12:12:30.840Z,68.43
2017-10-15T12:13:30.864Z,68.81
2017-10-15T12:14:30.889Z,68.33
2017-10-15T12:15:30.910Z,67.78
2017-10-15T12:16:30.936Z,67.75
2017-10-15T12:17:30.962Z,67.30
2017-10-15T12:18:30.981Z,67.65
2017-10-15T12:19:31.011Z,68.07
2017-10-15T12:20:31.031Z,67.69
2017-10-15T12:21:31.071Z,66.63
2017-10-15T12:22:31.088Z,66.33
2017-10-15T12:23:31.100Z,66.43
2017-10-15T12:24:31.123Z,66.36
2017-10-15T12:25:31.149Z,67.78
2017-10-15T12:26:31.175Z,67.49
2017-10-15T12:27:31.196Z,67.24
2017-10-15T12:28:31.222Z,67.40
2017-10-15T12:29:31.241Z,66.63
2017-10-15T12:30:31.273Z,68.26
2017-10-15T12:31:31.291Z,67.07
2017-10-15T12:32:31.323Z,68.01
2017-10-15T12:33:31.338Z,67.78
2017-10-15T12:34:31.363Z,66.63
2017-10-15T12:35:31.387Z,65.75
2017-10-15T12:36:31.410Z,65.66
2017-10-15T12:37:31.435Z,68.01
2017-10-15T12:38:31.690Z,68.68
2017-10-15T12:39:31.554Z,68.39
2017-10-15T12:40:31.525Z,68.29
2017-10-15T12:41:31.535Z,68.23
2017-10-15T12:42:31.554Z,68.10
2017-10-15T12:43:31.577Z,68.23
2017-10-15T12:44:31.630Z,68.43
2017-10-15T12:45:31.624Z,67.36
2017-10-15T12:46:31.646Z,68.04
2017-10-15T12:47:31.674Z,68.33
2017-10-15T12:48:31.695Z,66.97
2017-10-15T12:49:31.719Z,66.69
2017-10-15T12:50:31.743Z,66.40
2017-10-15T12:51:31.769Z,66.40
2017-10-15T12:52:31.789Z,67.75